Time;durP1;ratioP1;P1;durP2;ratioP2;P2;SDS_P1;SDS_P2;PMS_P1;PMS_P2;Temp;Humidity;BMP_temperature;BMP_pressure;BME280_temperature;BME280_humidity;BME280_pressure;Samples;Min_cycle;Max_cycle;Signal;HPM_P1;HPM_P2
2022/12/21 00:01:23;;;;;;;7.65;4.22;;;;;;;;;;4955544;28;20078;-81
2022/12/21 00:03:59;;;;;;;7.45;4.60;;;;;;;;;;4953993;28;20062;-81
2022/12/21 00:06:28;;;;;;;8.45;4.40;;;;;;;;;;4952220;28;20390;-80
2022/12/21 00:08:56;;;;;;;9.73;4.68;;;;;;;;;;4954402;29;20110;-81
2022/12/21 00:11:25;;;;;;;7.80;3.95;;;;;;;;;;4933044;29;20115;-79
2022/12/21 00:13:52;;;;;;;9.27;4.15;;;;;;;;;;4949402;28;20083;-80
2022/12/21 00:16:20;;;;;;;6.82;3.40;;;;;;;;;;4947328;28;20031;-79
2022/12/21 00:18:47;;;;;;;6.68;3.88;;;;;;;;;;4950603;28;20039;-79
2022/12/21 00:21:14;;;;;;;7.10;3.65;;;;;;;;;;4951273;28;20043;-81
2022/12/21 00:23:41;;;;;;;6.80;3.40;;;;;;;;;;4955736;28;20019;-81
2022/12/21 00:26:11;;;;;;;5.43;3.17;;;;;;;;;;4937070;28;20494;-80
2022/12/21 00:28:37;;;;;;;5.55;3.60;;;;;;;;;;4955339;28;20110;-81
2022/12/21 00:31:08;;;;;;;6.28;3.80;;;;;;;;;;4949791;29;20027;-80
2022/12/21 00:33:36;;;;;;;4.65;3.13;;;;;;;;;;4952029;28;20046;-81
2022/12/21 00:36:05;;;;;;;5.40;3.45;;;;;;;;;;4962577;28;20031;-81
2022/12/21 00:38:36;;;;;;;10.18;3.60;;;;;;;;;;4951785;29;20027;-81
2022/12/21 00:41:05;;;;;;;5.78;3.55;;;;;;;;;;4970521;28;20043;-82
2022/12/21 00:43:35;;;;;;;6.30;3.55;;;;;;;;;;4959463;28;20041;-80
2022/12/21 00:46:02;;;;;;;6.13;3.30;;;;;;;;;;4960223;28;20600;-81
2022/12/21 00:48:29;;;;;;;8.20;3.50;;;;;;;;;;4956802;28;20027;-83
2022/12/21 00:51:03;;;;;;;4.75;3.33;;;;;;;;;;4955137;28;20019;-80
2022/12/21 00:53:29;;;;;;;6.20;3.33;;;;;;;;;;4955651;28;20039;-80
2022/12/21 00:56:18;;;;;;;6.28;3.25;;;;;;;;;;4932970;28;20023;-83
2022/12/21 00:58:49;;;;;;;5.28;3.83;;;;;;;;;;4954692;28;20023;-80
2022/12/21 01:01:34;;;;;;;4.90;3.20;;;;;;;;;;4955554;28;20062;-81
2022/12/21 01:04:01;;;;;;;6.25;3.40;;;;;;;;;;4957001;29;20031;-82
2022/12/21 01:06:31;;;;;;;7.28;3.42;;;;;;;;;;4935953;29;20039;-82
2022/12/21 01:09:00;;;;;;;;;;;11.30;99.90;;;;;;4940937;29;20035;-80
2022/12/21 01:11:28;;;;;;;6.25;3.22;;;;;;;;;;4948009;29;19915;-84
2022/12/21 01:13:56;;;;;;;5.72;3.67;;;;;;;;;;4957666;28;20107;-80
2022/12/21 01:16:26;;;;;;;7.47;3.90;;;;;;;;;;4967677;28;20050;-82
2022/12/21 01:18:55;;;;;;;5.25;3.90;;;;;;;;;;4967504;29;20035;-82
2022/12/21 01:21:26;;;;;;;7.85;3.85;;;;;;;;;;4968167;28;20095;-82
2022/12/21 01:23:57;;;;;;;;;;;11.30;99.90;;;;;;4976674;28;20008;-83
2022/12/21 01:26:41;;;;;;;6.50;3.97;;;;;;;;;;4959192;28;19910;-81
2022/12/21 01:29:10;;;;;;;10.70;4.28;;;;;;;;;;4957880;28;20035;-79
2022/12/21 01:31:36;;;;;;;5.60;3.83;;;;;;;;;;4947870;28;20028;-81
2022/12/21 01:34:05;;;;;;;5.07;3.65;;;;;;;;;;4953509;28;20070;-80
2022/12/21 01:37:03;;;;;;;6.22;4.10;;;11.20;99.90;;;;;;4943053;29;20129;-81
2022/12/21 01:39:32;;;;;;;6.15;4.32;;;;;;;;;;4932471;29;20027;-81
2022/12/21 01:41:58;;;;;;;5.15;4.60;;;;;;;;;;4955412;28;20062;-81
2022/12/21 01:45:03;;;;;;;7.15;4.40;;;;;;;;;;4943121;28;20050;-80
2022/12/21 01:47:36;;;;;;;6.57;4.90;;;;;;;;;;4873299;29;20029;-80
2022/12/21 01:50:05;;;;;;;6.10;4.75;;;;;;;;;;4884165;29;20052;-83
2022/12/21 01:52:32;;;;;;;7.20;4.85;;;;;;;;;;4923064;28;20035;-81
2022/12/21 01:55:01;;;;;;;5.10;4.55;;;;;;;;;;4926775;28;20031;-79
2022/12/21 01:57:30;;;;;;;6.43;5.30;;;;;;;;;;4940252;28;20034;-81
2022/12/21 01:59:58;;;;;;;10.20;5.30;;;;;;;;;;4922616;28;20501;-82
2022/12/21 02:02:27;;;;;;;6.47;5.43;;;;;;;;;;4946098;29;20043;-80
2022/12/21 02:04:54;;;;;;;7.03;4.93;;;;;;;;;;4958798;28;20038;-81
2022/12/21 02:07:23;;;;;;;7.38;5.55;;;;;;;;;;4926054;28;20059;-79
2022/12/21 02:09:53;;;;;;;5.72;5.00;;;;;;;;;;4937175;29;20027;-80
2022/12/21 02:12:23;;;;;;;6.97;5.70;;;;;;;;;;4944973;29;20059;-80
2022/12/21 02:14:52;;;;;;;6.30;5.22;;;;;;;;;;4946023;29;20036;-81
2022/12/21 02:17:26;;;;;;;6.47;5.60;;;;;;;;;;4966312;28;20023;-80
2022/12/21 02:20:00;;;;;;;7.53;5.45;;;;;;;;;;4959355;28;20073;-82
2022/12/21 02:22:43;;;;;;;7.68;5.72;;;;;;;;;;4964593;28;20405;-81
2022/12/21 02:25:28;;;;;;;8.55;6.32;;;11.20;99.90;;;;;;4946283;29;20590;-81
2022/12/21 02:28:31;;;;;;;11.25;6.05;;;11.20;99.90;;;;;;4957559;28;20031;-81
2022/12/21 02:31:17;;;;;;;7.55;6.38;;;;;;;;;;4960347;28;20393;-82
2022/12/21 02:34:04;;;;;;;8.23;6.00;;;;;;;;;;4952241;28;20023;-82
2022/12/21 02:36:32;;;;;;;9.70;6.80;;;;;;;;;;4957001;28;20047;-80
2022/12/21 02:39:11;;;;;;;11.75;7.57;;;;;;;;;;4943980;29;20425;-80
2022/12/21 02:41:37;;;;;;;10.05;7.55;;;;;;;;;;4944655;28;20062;-80
2022/12/21 02:44:12;;;;;;;9.70;7.78;;;;;;;;;;4941395;28;20423;-81
2022/12/21 02:46:39;;;;;;;9.15;7.80;;;;;;;;;;4947293;28;20421;-81
2022/12/21 02:49:18;;;;;;;9.77;7.80;;;;;;;;;;4955414;28;20504;-81
2022/12/21 02:51:50;;;;;;;12.50;8.13;;;;;;;;;;4944220;29;20023;-81
2022/12/21 02:54:18;;;;;;;11.20;7.20;;;;;;;;;;4963094;28;20106;-82
2022/12/21 02:56:45;;;;;;;11.38;7.88;;;;;;;;;;4962995;28;20074;-80
2022/12/21 02:59:13;;;;;;;8.68;7.28;;;;;;;;;;4976630;28;20019;-83
2022/12/21 03:01:39;;;;;;;8.73;7.47;;;;;;;;;;4950592;23;20054;-87
2022/12/21 03:04:14;;;;;;;9.93;7.75;;;;;;;;;;4921270;29;20107;-86
2022/12/21 03:07:08;;;;;;;10.23;8.13;;;11.10;99.90;;;;;;4912236;29;20442;-87
2022/12/21 03:09:48;;;;;;;7.55;6.75;;;11.10;99.90;;;;;;4912921;29;20028;-86
2022/12/21 03:12:39;;;;;;;9.67;6.93;;;11.10;99.90;;;;;;4898707;29;20028;-87
2022/12/21 03:15:11;;;;;;;10.48;7.63;;;;;;;;;;4900441;29;20039;-86
2022/12/21 03:17:44;;;;;;;8.65;7.28;;;11.10;99.90;;;;;;4892788;29;20036;-84
2022/12/21 03:20:40;;;;;;;8.45;6.80;;;11.10;99.90;;;;;;4893164;29;20039;-86
2022/12/21 03:23:28;;;;;;;10.18;6.60;;;11.10;99.90;;;;;;4890361;29;20036;-85
2022/12/21 03:25:54;;;;;;;8.38;7.05;;;;;;;;;;4918126;29;20032;-86
2022/12/21 03:28:26;;;;;;;7.88;7.07;;;11.10;99.90;;;;;;4913592;29;20046;-86
2022/12/21 03:30:55;;;;;;;7.95;7.15;;;11.10;99.90;;;;;;4895587;29;20020;-86
2022/12/21 03:33:26;;;;;;;8.95;7.55;;;11.10;99.90;;;;;;4913440;29;20036;-87
2022/12/21 03:36:03;;;;;;;8.35;7.05;;;11.10;99.90;;;;;;4916611;29;20061;-86
2022/12/21 03:39:00;;;;;;;12.02;7.35;;;11.10;99.90;;;;;;4896546;29;20056;-83
2022/12/21 03:41:31;;;;;;;8.52;6.63;;;;;;;;;;4898749;29;20056;-86
2022/12/21 03:43:57;;;;;;;;;;;11.20;99.90;;;;;;4902301;29;20102;-88
2022/12/21 03:46:30;;;;;;;7.35;6.57;;;11.20;99.90;;;;;;4899431;29;19919;-86
2022/12/21 03:49:20;;;;;;;8.80;6.45;;;11.20;99.90;;;;;;4917100;29;20130;-86
2022/12/21 03:51:52;;;;;;;7.13;6.43;;;11.20;99.90;;;;;;4899982;29;20024;-86
2022/12/21 03:54:43;;;;;;;10.27;7.07;;;11.20;99.90;;;;;;4912475;29;20038;-84
2022/12/21 03:57:09;;;;;;;8.05;6.95;;;11.20;99.90;;;;;;4897098;29;20232;-85
2022/12/21 03:59:38;;;;;;;8.70;7.30;;;11.20;99.90;;;;;;4910405;29;20043;-87
2022/12/21 04:02:31;;;;;;;10.00;7.93;;;11.20;99.90;;;;;;4911923;29;20063;-86
2022/12/21 04:05:09;;;;;;;10.45;7.50;;;11.20;99.90;;;;;;4890399;29;20383;-85
2022/12/21 04:07:37;;;;;;;7.10;6.32;;;11.20;99.90;;;;;;4910244;29;20032;-88
2022/12/21 04:10:12;;;;;;;7.72;6.78;;;11.20;99.90;;;;;;4895191;29;20036;-85
2022/12/21 04:12:39;;;;;;;7.03;6.32;;;;;;;;;;4912338;29;20036;-86
2022/12/21 04:15:10;;;;;;;7.82;6.70;;;;;;;;;;4902036;29;20055;-87
2022/12/21 04:17:36;;;;;;;6.93;6.13;;;;;;;;;;4894164;29;20047;-85
2022/12/21 04:20:06;;;;;;;9.52;6.60;;;11.10;99.90;;;;;;4914347;29;20067;-86
2022/12/21 04:28:09;;;;;;;8.70;6.53;;;;;;;;;;4927225;29;20059;-85
2022/12/21 04:30:40;;;;;;;7.90;6.20;;;11.20;99.90;;;;;;4903498;29;20024;-84
2022/12/21 04:33:07;;;;;;;8.70;5.78;;;11.20;99.90;;;;;;4928606;29;20288;-84
2022/12/21 04:35:33;;;;;;;8.80;7.03;;;;;;;;;;4908061;29;20035;-86
2022/12/21 04:37:59;;;;;;;6.35;4.47;;;;;;;;;;4914251;29;20035;-83
2022/12/21 04:40:25;;;;;;;4.25;3.53;;;;;;;;;;4930348;29;20027;-87
2022/12/21 04:42:51;;;;;;;4.35;3.40;;;;;;;;;;4908777;29;20047;-86
2022/12/21 04:45:17;;;;;;;4.22;3.55;;;;;;;;;;4925483;29;20084;-83
2022/12/21 04:47:43;;;;;;;3.67;3.10;;;;;;;;;;4905743;29;20140;-88
2022/12/21 04:50:10;;;;;;;4.32;2.70;;;;;;;;;;4919620;29;20040;-86
2022/12/21 04:52:36;;;;;;;3.65;3.03;;;;;;;;;;4926875;29;20111;-84
2022/12/21 04:55:02;;;;;;;3.75;3.13;;;;;;;;;;4911914;29;20035;-84
2022/12/21 04:57:29;;;;;;;4.38;2.60;;;;;;;;;;4911663;29;20032;-85
2022/12/21 04:59:55;;;;;;;3.90;2.50;;;;;;;;;;4914322;29;20035;-86
2022/12/21 05:02:20;;;;;;;3.60;2.42;;;;;;;;;;4928304;29;20032;-88
2022/12/21 05:04:47;;;;;;;3.40;2.10;;;;;;;;;;4907438;28;20025;-86
2022/12/21 05:07:13;;;;;;;2.97;2.30;;;;;;;;;;4928229;29;20068;-86
2022/12/21 05:09:39;;;;;;;3.50;2.35;;;;;;;;;;4924386;29;20055;-84
2022/12/21 05:12:05;;;;;;;2.88;2.20;;;;;;;;;;4928758;29;20013;-88
2022/12/21 05:14:31;;;;;;;2.80;2.50;;;;;;;;;;4910223;29;20028;-83
2022/12/21 05:16:57;;;;;;;6.05;2.90;;;;;;;;;;4925641;29;20016;-87
2022/12/21 05:19:23;;;;;;;3.95;2.30;;;;;;;;;;4923148;29;20025;-86
2022/12/21 05:21:49;;;;;;;4.03;2.20;;;;;;;;;;4924497;29;20515;-86
2022/12/21 05:24:15;;;;;;;3.00;2.33;;;;;;;;;;4913541;29;20036;-85
2022/12/21 05:26:41;;;;;;;3.72;1.90;;;;;;;;;;4917576;29;20148;-88
2022/12/21 05:29:07;;;;;;;3.13;1.92;;;;;;;;;;4915774;29;20041;-84
2022/12/21 05:31:36;;;;;;;3.30;2.00;;;;;;;;;;4913258;29;20438;-84
2022/12/21 05:34:02;;;;;;;2.33;1.90;;;;;;;;;;4899192;29;20056;-85
2022/12/21 05:36:29;;;;;;;2.80;1.88;;;;;;;;;;4894120;29;20039;-84
2022/12/21 05:38:56;;;;;;;2.60;1.98;;;;;;;;;;4893187;29;20380;-83
2022/12/21 05:41:22;;;;;;;3.10;2.00;;;;;;;;;;4895500;29;20032;-85
2022/12/21 05:43:48;;;;;;;3.33;2.17;;;;;;;;;;4913804;29;20043;-85
2022/12/21 05:46:14;;;;;;;4.03;2.40;;;;;;;;;;4914174;29;20032;-85
2022/12/21 05:48:40;;;;;;;3.53;2.35;;;;;;;;;;4918460;29;20607;-84
2022/12/21 05:51:11;;;;;;;4.32;3.25;;;11.30;99.90;;;;;;4907926;29;20142;-84
2022/12/21 05:53:39;;;;;;;5.63;3.33;;;;;;;;;;4892985;29;20447;-85
2022/12/21 05:56:06;;;;;;;5.22;3.60;;;;;;;;;;4917322;29;20068;-84
2022/12/21 05:58:32;;;;;;;5.57;3.42;;;;;;;;;;4918470;29;20036;-83
2022/12/21 06:01:05;;;;;;;4.75;3.80;;;;;;;;;;4914003;29;20040;-85
2022/12/21 06:03:31;;;;;;;6.53;4.20;;;;;;;;;;4914992;29;20035;-86
2022/12/21 06:06:08;;;;;;;5.05;4.10;;;;;;;;;;4896724;29;20031;-89
2022/12/21 06:08:34;;;;;;;7.70;5.00;;;;;;;;;;4901923;29;20032;-88
2022/12/21 06:11:07;;;;;;;6.43;4.03;;;;;;;;;;4919634;29;20046;-85
2022/12/21 06:13:33;;;;;;;5.13;4.20;;;;;;;;;;4903181;29;20024;-86
2022/12/21 06:16:07;;;;;;;6.57;4.78;;;;;;;;;;4902238;29;20182;-87
2022/12/21 06:18:33;;;;;;;6.13;4.50;;;;;;;;;;4922043;29;20100;-85
2022/12/21 06:20:59;;;;;;;7.03;5.10;;;;;;;;;;4924914;29;20032;-84
2022/12/21 06:23:25;;;;;;;5.80;4.68;;;;;;;;;;4906383;29;20043;-86
2022/12/21 06:25:56;;;;;;;5.43;4.43;;;;;;;;;;4912217;29;20036;-87
2022/12/21 06:28:25;;;;;;;4.88;4.03;;;;;;;;;;4920276;29;20040;-85
2022/12/21 06:30:55;;;;;;;4.93;4.43;;;;;;;;;;4920185;29;20031;-85
2022/12/21 06:33:23;;;;;;;6.53;4.75;;;;;;;;;;4905154;29;20032;-84
2022/12/21 06:35:55;;;;;;;7.90;6.22;;;;;;;;;;4908507;29;20044;-88
2022/12/21 06:38:21;;;;;;;6.40;5.25;;;;;;;;;;4930435;29;20016;-87
2022/12/21 06:40:52;;;;;;;6.88;5.07;;;;;;;;;;4908918;29;20087;-86
2022/12/21 06:43:18;;;;;;;5.85;5.15;;;;;;;;;;4913675;29;20028;-86
2022/12/21 06:45:45;;;;;;;8.10;5.10;;;;;;;;;;4932610;29;20012;-86
2022/12/21 06:48:11;;;;;;;5.50;4.65;;;;;;;;;;4927172;29;20083;-85
2022/12/21 06:50:40;;;;;;;7.03;4.97;;;;;;;;;;4921015;29;20028;-89
2022/12/21 06:53:06;;;;;;;9.10;4.97;;;;;;;;;;4922407;29;20032;-87
2022/12/21 06:55:32;;;;;;;5.38;4.40;;;;;;;;;;4911514;28;20055;-88
2022/12/21 06:58:08;;;;;;;5.53;5.00;;;;;;;;;;4930023;29;20046;-87
2022/12/21 07:00:34;;;;;;;5.68;4.63;;;;;;;;;;4905255;29;20028;-88
2022/12/21 07:03:00;;;;;;;6.03;4.82;;;;;;;;;;4928329;29;20028;-88
2022/12/21 07:05:27;;;;;;;6.60;5.22;;;;;;;;;;4894181;29;20125;-87
2022/12/21 07:07:53;;;;;;;7.95;5.57;;;;;;;;;;4930972;28;20044;-87
2022/12/21 07:10:19;;;;;;;8.23;5.07;;;;;;;;;;4904751;29;20043;-86
2022/12/21 07:12:45;;;;;;;8.60;5.53;;;;;;;;;;4931142;28;20020;-88
2022/12/21 07:15:11;;;;;;;6.85;5.43;;;;;;;;;;4925868;28;20096;-86
2022/12/21 07:17:37;;;;;;;7.78;5.57;;;;;;;;;;4908635;29;20016;-86
2022/12/21 07:20:04;;;;;;;6.97;5.32;;;;;;;;;;4929134;29;20016;-88
2022/12/21 07:22:30;;;;;;;5.90;4.80;;;;;;;;;;4924566;28;20028;-85
2022/12/21 07:24:56;;;;;;;6.13;5.20;;;;;;;;;;4923298;28;20024;-87
2022/12/21 07:27:22;;;;;;;7.22;5.35;;;;;;;;;;4934142;28;20016;-88
2022/12/21 07:29:48;;;;;;;7.03;5.63;;;;;;;;;;4921814;28;20250;-84
2022/12/21 07:32:14;;;;;;;6.55;5.10;;;;;;;;;;4920002;29;20040;-87
2022/12/21 07:34:41;;;;;;;6.70;5.15;;;;;;;;;;4919215;29;20085;-84
2022/12/21 07:37:07;;;;;;;7.32;5.40;;;;;;;;;;4917807;29;20091;-85
2022/12/21 07:39:33;;;;;;;9.52;5.63;;;;;;;;;;4907606;29;20059;-90
2022/12/21 07:41:59;;;;;;;6.90;5.18;;;;;;;;;;4924187;28;20032;-90
2022/12/21 07:44:25;;;;;;;9.27;5.38;;;;;;;;;;4924508;29;20020;-87
2022/12/21 07:46:51;;;;;;;8.73;5.35;;;;;;;;;;4903341;29;20028;-87
2022/12/21 07:49:17;;;;;;;7.15;5.60;;;;;;;;;;4920220;29;20036;-85
2022/12/21 07:51:43;;;;;;;8.15;5.30;;;;;;;;;;4902638;29;20030;-87
2022/12/21 07:54:09;;;;;;;5.93;4.85;;;;;;;;;;4922920;29;20495;-84
2022/12/21 07:56:35;;;;;;;7.47;5.00;;;;;;;;;;4922175;29;20020;-89
2022/12/21 07:59:01;;;;;;;7.25;5.35;;;;;;;;;;4909861;29;20096;-85
2022/12/21 08:01:27;;;;;;;9.80;5.63;;;;;;;;;;4923141;29;20037;-85
2022/12/21 08:03:53;;;;;;;7.85;5.53;;;;;;;;;;4909709;29;20054;-84
2022/12/21 08:06:20;;;;;;;6.22;5.60;;;;;;;;;;4924469;29;21064;-85
2022/12/21 08:08:49;;;;;;;7.90;5.63;;;;;;;;;;4905736;29;20047;-85
2022/12/21 08:11:19;;;;;;;7.03;5.75;;;;;;;;;;4909784;29;20266;-83
2022/12/21 08:13:45;;;;;;;7.75;6.00;;;;;;;;;;4924032;29;20019;-84
2022/12/21 08:16:15;;;;;;;8.75;5.68;;;;;;;;;;4923222;29;20509;-87
2022/12/21 08:18:42;;;;;;;7.93;5.53;;;;;;;;;;4908252;29;20058;-88
2022/12/21 08:21:08;;;;;;;8.75;5.60;;;;;;;;;;4911525;29;20036;-87
2022/12/21 08:23:34;;;;;;;6.97;5.38;;;;;;;;;;4910514;29;20016;-89
2022/12/21 08:26:03;;;;;;;7.10;5.10;;;;;;;;;;4892616;29;20036;-84
2022/12/21 08:28:30;;;;;;;8.10;5.25;;;;;;;;;;4929136;29;20050;-83
2022/12/21 08:31:04;;;;;;;11.98;5.85;;;11.40;99.90;;;;;;4907699;29;20475;-85
2022/12/21 08:33:30;;;;;;;8.80;5.70;;;;;;;;;;4908838;29;20025;-84
2022/12/21 08:35:56;;;;;;;7.70;6.00;;;;;;;;;;4909242;29;20012;-86
2022/12/21 08:38:22;;;;;;;8.82;6.40;;;;;;;;;;4907670;29;20062;-86
2022/12/21 08:40:48;;;;;;;10.05;6.97;;;;;;;;;;4928210;29;20043;-90
2022/12/21 08:43:15;;;;;;;8.05;6.57;;;;;;;;;;4921211;29;20012;-85
2022/12/21 08:45:41;;;;;;;7.75;5.85;;;;;;;;;;4923723;29;20012;-85
2022/12/21 08:48:07;;;;;;;10.98;6.60;;;;;;;;;;4909852;29;20035;-86
2022/12/21 08:50:33;;;;;;;11.00;6.70;;;;;;;;;;4910300;29;20080;-83
2022/12/21 08:52:59;;;;;;;8.27;6.35;;;;;;;;;;4922201;29;20048;-85
2022/12/21 08:55:25;;;;;;;11.38;6.60;;;;;;;;;;4928718;28;20017;-85
2022/12/21 08:57:51;;;;;;;8.07;6.20;;;;;;;;;;4903612;29;20023;-85
2022/12/21 09:00:17;;;;;;;7.25;5.90;;;;;;;;;;4906497;29;20055;-85
2022/12/21 09:02:43;;;;;;;5.90;4.45;;;;;;;;;;4922473;29;20038;-85
2022/12/21 09:05:10;;;;;;;5.25;4.07;;;;;;;;;;4922945;29;21248;-84
2022/12/21 09:07:36;;;;;;;5.32;3.58;;;;;;;;;;4908712;29;20071;-90
2022/12/21 09:10:02;;;;;;;4.85;3.22;;;;;;;;;;4926033;29;20043;-87
2022/12/21 09:12:28;;;;;;;5.70;2.92;;;;;;;;;;4923962;29;20031;-86
2022/12/21 09:14:54;;;;;;;6.47;3.25;;;;;;;;;;4919967;29;20101;-85
2022/12/21 09:17:20;;;;;;;5.45;3.20;;;;;;;;;;4921913;29;20166;-84
2022/12/21 09:19:46;;;;;;;5.43;3.40;;;;;;;;;;4919489;29;20033;-87
2022/12/21 09:22:14;;;;;;;5.35;3.10;;;;;;;;;;4927075;29;20017;-85
2022/12/21 09:24:46;;;;;;;5.43;3.08;;;;;;;;;;4924558;29;20446;-89
2022/12/21 09:27:12;;;;;;;7.53;4.22;;;;;;;;;;4924861;28;20103;-86
2022/12/21 09:29:38;;;;;;;7.53;3.53;;;;;;;;;;4924943;29;20492;-85
2022/12/21 09:32:04;;;;;;;5.15;3.30;;;;;;;;;;4933701;29;20033;-87
2022/12/21 09:34:30;;;;;;;5.28;3.40;;;;;;;;;;4921405;29;20036;-85
2022/12/21 09:36:56;;;;;;;4.55;2.92;;;;;;;;;;4929121;29;20043;-85
2022/12/21 09:39:22;;;;;;;6.38;3.17;;;;;;;;;;4922533;29;20020;-88
2022/12/21 09:41:57;;;;;;;3.83;2.90;;;;;;;;;;4909569;29;20044;-90
2022/12/21 09:44:35;;;;;;;4.85;2.72;;;;;;;;;;4912383;29;20103;-89
2022/12/21 09:47:04;;;;;;;4.95;3.03;;;;;;;;;;4929761;29;20024;-87
2022/12/21 09:49:51;;;;;;;5.07;3.42;;;;;;;;;;4931335;29;20040;-88
2022/12/21 09:52:43;;;;;;;7.38;3.28;;;;;;;;;;4909566;29;20050;-89
2022/12/21 09:55:18;;;;;;;6.30;3.30;;;;;;;;;;4910605;28;20044;-87
2022/12/21 09:57:44;;;;;;;5.20;3.58;;;;;;;;;;4923708;29;20036;-85
2022/12/21 10:00:18;;;;;;;6.38;3.30;;;11.70;99.90;;;;;;4928428;28;20953;-86
2022/12/21 10:02:54;;;;;;;6.18;3.25;;;;;;;;;;4909704;29;20008;-88
2022/12/21 10:05:26;;;;;;;5.60;3.10;;;;;;;;;;4926704;29;20031;-87
2022/12/21 10:08:07;;;;;;;5.30;2.65;;;;;;;;;;4912027;29;20043;-85
2022/12/21 10:10:33;;;;;;;5.70;2.97;;;;;;;;;;4905623;29;20075;-88
2022/12/21 10:12:59;;;;;;;5.53;2.90;;;;;;;;;;4932442;29;20005;-86
2022/12/21 10:15:34;;;;;;;8.40;2.80;;;;;;;;;;4927226;28;20050;-85
2022/12/21 10:18:20;;;;;;;3.25;1.90;;;;;;;;;;4909192;29;20036;-86
2022/12/21 10:21:28;;;;;;;4.50;2.50;;;11.70;99.90;;;;;;4928016;29;20028;-86
2022/12/21 10:23:55;;;;;;;3.55;2.13;;;;;;;;;;4908184;29;20107;-86
2022/12/21 10:26:25;;;;;;;3.78;2.10;;;11.70;99.90;;;;;;4897926;29;20019;-88
2022/12/21 10:29:06;;;;;;;4.53;2.25;;;11.80;99.90;;;;;;4928439;29;20028;-87
2022/12/21 10:31:40;;;;;;;4.13;2.35;;;;;;;;;;4926204;29;20027;-87
2022/12/21 10:34:23;;;;;;;4.07;1.80;;;;;;;;;;4928826;29;20028;-88
2022/12/21 10:36:56;;;;;;;3.00;1.75;;;;;;;;;;4930435;29;20016;-86
2022/12/21 10:39:22;;;;;;;2.85;1.48;;;;;;;;;;4922783;29;20092;-86
2022/12/21 10:42:04;;;;;;;5.53;1.70;;;12.00;99.90;;;;;;4906332;29;20036;-84
2022/12/21 10:44:30;;;;;;;4.57;1.50;;;;;;;;;;4906833;29;20044;-86
2022/12/21 10:46:57;;;;;;;3.80;1.98;;;;;;;;;;4907063;29;20048;-86
2022/12/21 10:49:31;;;;;;;2.05;1.30;;;12.10;99.90;;;;;;4928773;29;20064;-86
2022/12/21 10:51:57;;;;;;;3.70;1.40;;;;;;;;;;4923836;28;20060;-86
2022/12/21 10:54:28;;;;;;;7.43;4.18;;;12.10;99.90;;;;;;4914412;29;20032;-87
2022/12/21 10:56:57;;;;;;;3.95;1.48;;;12.20;99.90;;;;;;4913692;29;20020;-87
2022/12/21 10:59:29;;;;;;;4.82;1.60;;;12.20;99.90;;;;;;4908491;29;20083;-85
2022/12/21 11:01:55;;;;;;;2.65;1.65;;;;;;;;;;4899407;29;20033;-87
2022/12/21 11:04:24;;;;;;;4.78;1.48;;;;;;;;;;4915750;29;20084;-89
2022/12/21 11:06:56;;;;;;;2.88;1.80;;;;;;;;;;4901361;29;20486;-87
2022/12/21 11:09:34;;;;;;;2.88;1.30;;;;;;;;;;4917111;29;20032;-85
2022/12/21 11:12:20;;;;;;;2.83;1.40;;;;;;;;;;4911074;29;20029;-87
2022/12/21 11:14:47;;;;;;;4.95;1.88;;;12.30;99.90;;;;;;4915531;29;20035;-85
2022/12/21 11:17:21;;;;;;;2.60;1.50;;;12.30;99.90;;;;;;4918182;29;20024;-87
2022/12/21 11:19:48;;;;;;;8.13;1.45;;;;;;;;;;4915369;29;20043;-90
2022/12/21 11:22:19;;;;;;;4.00;1.95;;;12.30;99.90;;;;;;4918710;29;20100;-88
2022/12/21 11:24:48;;;;;;;;;;;12.20;99.90;;;;;;4925750;29;20043;-86
2022/12/21 11:27:17;;;;;;;4.82;2.13;;;;;;;;;;4918563;29;19915;-85
2022/12/21 11:30:05;;;;;;;3.88;2.30;;;12.30;99.90;;;;;;4922462;29;20197;-85
2022/12/21 11:32:31;;;;;;;3.65;1.90;;;;;;;;;;4921814;29;20032;-86
2022/12/21 11:35:02;;;;;;;3.45;1.73;;;;;;;;;;4909327;29;20032;-84
2022/12/21 11:37:36;;;;;;;5.10;1.63;;;;;;;;;;4928553;29;20113;-86
2022/12/21 11:40:12;;;;;;;3.80;1.85;;;;;;;;;;4921687;29;20586;-85
2022/12/21 11:42:50;;;;;;;3.60;1.52;;;;;;;;;;4921060;29;20561;-87
2022/12/21 11:45:17;;;;;;;2.95;1.60;;;;;;;;;;4915420;29;20067;-86
2022/12/21 11:47:58;;;;;;;3.88;1.80;;;;;;;;;;4906547;29;20814;-88
2022/12/21 11:50:33;;;;;;;4.22;1.95;;;;;;;;;;4922816;29;20095;-89
2022/12/21 11:53:30;;;;;;;5.35;2.10;;;12.60;99.90;;;;;;4905560;29;20048;-88
2022/12/21 11:56:15;;;;;;;2.75;1.58;;;12.60;99.90;;;;;;4928107;29;20047;-89
2022/12/21 11:58:59;;;;;;;3.53;1.45;;;;;;;;;;4919676;29;20099;-88
2022/12/21 12:01:49;;;;;;;3.92;1.83;;;;;;;;;;4912336;29;20103;-86
2022/12/21 12:04:33;;;;;;;5.82;1.25;;;;;;;;;;4899800;29;20039;-86
2022/12/21 12:07:28;;;;;;;4.85;1.50;;;12.40;99.90;;;;;;4919840;29;20115;-85
2022/12/21 12:10:19;;;;;;;2.88;1.40;;;;;;;;;;4903921;29;20039;-85
2022/12/21 12:12:54;;;;;;;;;;;12.30;99.90;;;;;;4909139;29;20075;-85
2022/12/21 12:15:41;;;;;;;2.45;1.30;;;;;;;;;;4917509;29;19919;-85
2022/12/21 12:18:14;;;;;;;3.90;1.40;;;12.30;99.90;;;;;;4932765;29;20490;-87
2022/12/21 12:20:46;;;;;;;4.03;1.70;;;;;;;;;;4925015;29;20024;-87
2022/12/21 12:23:23;;;;;;;3.38;1.75;;;12.20;99.90;;;;;;4921631;29;20016;-89
2022/12/21 12:26:13;;;;;;;3.03;1.83;;;12.20;99.90;;;;;;4917774;29;20016;-83
2022/12/21 12:29:07;;;;;;;6.28;1.70;;;12.20;99.90;;;;;;4926531;28;20031;-84
2022/12/21 12:31:57;;;;;;;3.13;1.35;;;12.20;99.90;;;;;;4925897;29;20040;-86
2022/12/21 12:34:28;;;;;;;2.60;1.30;;;;;;;;;;4932811;28;20056;-84
2022/12/21 12:37:05;;;;;;;2.70;1.52;;;;;;;;;;4910499;29;20664;-87
2022/12/21 12:40:00;;;;;;;4.38;1.95;;;12.10;99.90;;;;;;4906709;29;20442;-85
2022/12/21 12:42:41;;;;;;;17.75;7.95;;;12.10;99.90;;;;;;4923126;29;20020;-87
2022/12/21 12:45:07;;;;;;;13.77;4.47;;;;;;;;;;4909000;29;20073;-87
2022/12/21 12:47:52;;;;;;;2.10;1.48;;;12.10;99.90;;;;;;4925522;29;20028;-86
2022/12/21 12:50:39;;;;;;;4.47;2.30;;;12.10;99.90;;;;;;4902371;29;20056;-88
2022/12/21 12:53:24;;;;;;;5.40;1.77;;;12.20;99.90;;;;;;4924347;29;20028;-86
2022/12/21 12:56:13;;;;;;;3.58;1.75;;;12.10;99.90;;;;;;4916224;29;20031;-87
2022/12/21 12:58:50;;;;;;;4.43;1.90;;;;;;;;;;4920962;29;20028;-87
2022/12/21 13:01:30;;;;;;;4.05;2.05;;;;;;;;;;4922227;29;20087;-85
2022/12/21 13:04:10;;;;;;;2.58;1.42;;;12.00;99.90;;;;;;4901076;29;20084;-89
2022/12/21 13:06:49;;;;;;;4.03;1.67;;;;;;;;;;4920418;29;20032;-86
2022/12/21 13:09:30;;;;;;;4.88;1.50;;;;;;;;;;4904626;29;20099;-89
2022/12/21 13:12:22;;;;;;;3.92;1.80;;;12.00;99.90;;;;;;4902670;29;20024;-87
2022/12/21 13:15:10;;;;;;;3.67;2.00;;;11.90;99.90;;;;;;4909517;29;20060;-87
2022/12/21 13:17:46;;;;;;;5.03;2.08;;;11.90;99.90;;;;;;4922532;29;20274;-87
2022/12/21 13:20:15;;;;;;;4.47;1.92;;;;;;;;;;4921026;29;20040;-85
2022/12/21 13:22:43;;;;;;;3.17;1.70;;;11.80;99.90;;;;;;4923448;29;20101;-86
2022/12/21 13:25:19;;;;;;;3.40;1.67;;;;;;;;;;4926923;29;20171;-86
2022/12/21 13:27:51;;;;;;;3.40;2.00;;;11.80;99.90;;;;;;4918506;29;20432;-90
2022/12/21 13:30:19;;;;;;;7.13;3.05;;;11.80;99.90;;;;;;4907231;29;20048;-89
2022/12/21 13:32:56;;;;;;;5.70;2.50;;;11.80;99.90;;;;;;4907853;29;20039;-86
2022/12/21 13:36:07;;;;;;;6.47;3.10;;;11.80;99.90;;;;;;4916246;29;20028;-87
2022/12/21 13:39:21;;;;;;;3.80;1.70;;;11.80;99.90;;;;;;4905434;29;20104;-89
2022/12/21 13:50:23;;;;;;;3.03;1.65;;;;;;;;;;927802;23;20311;-88
2022/12/21 13:53:14;;;;;;;3.92;2.00;;;;;;;;;;4959103;28;20023;-87
2022/12/21 13:55:52;;;;;;;4.85;2.00;;;;;;;;;;4956551;28;20066;-86
2022/12/21 13:58:26;;;;;;;6.10;2.20;;;;;;;;;;4975208;28;20379;-92
2022/12/21 14:01:37;;;;;;;6.18;1.83;;;11.70;99.90;;;;;;4975208;28;20019;-87
2022/12/21 14:04:29;;;;;;;2.42;1.40;;;11.70;99.90;;;;;;4949553;28;20153;-87
2022/12/21 14:07:25;;;;;;;8.07;4.00;;;11.70;99.90;;;;;;4949477;28;20094;-88
2022/12/21 14:10:03;;;;;;;2.88;1.52;;;11.70;99.90;;;;;;4966896;28;20035;-91
2022/12/21 14:12:38;;;;;;;3.35;1.42;;;11.70;99.90;;;;;;4957872;28;20274;-87
2022/12/21 14:15:48;;;;;;;2.90;1.30;;;11.60;99.90;;;;;;4954734;28;20023;-87
2022/12/21 14:18:17;;;;;;;4.32;1.60;;;11.60;99.90;;;;;;4916158;29;20043;-86
2022/12/21 14:20:43;;;;;;;2.45;1.23;;;;;;;;;;4945536;28;20039;-88
2022/12/21 14:23:29;;;;;;;3.58;1.30;;;11.50;99.90;;;;;;4951275;28;20031;-86
2022/12/21 14:25:56;;;;;;;3.00;1.67;;;11.50;99.90;;;;;;4965259;28;20119;-88
2022/12/21 14:28:27;;;;;;;6.32;2.13;;;;;;;;;;4953814;28;20110;-88
2022/12/21 14:31:04;;;;;;;5.22;2.28;;;;;;;;;;4957589;28;20043;-91
2022/12/21 14:33:49;;;;;;;5.45;2.20;;;11.50;99.90;;;;;;4952317;28;20066;-86
2022/12/21 14:37:17;;;;;;;4.78;1.70;;;11.50;99.90;;;;;;4942895;28;20083;-88
2022/12/21 14:40:09;;;;;;;4.68;1.85;;;11.50;99.90;;;;;;4962461;28;20520;-88
2022/12/21 14:42:51;;;;;;;6.35;2.10;;;11.50;99.90;;;;;;4902510;29;20095;-87
2022/12/21 14:45:45;;;;;;;4.85;1.63;;;10.90;99.90;;;;;;4953614;28;20027;-88
2022/12/21 14:48:31;;;;;;;2.90;1.40;;;11.30;99.90;;;;;;4949427;28;20050;-85
2022/12/21 14:51:07;;;;;;;;;;;;;;;;;;;;;
2022/12/21 14:53:58;;;;;;;4.55;1.40;;;11.30;99.90;;;;;;4959811;28;20098;-88
2022/12/21 14:56:45;;;;;;;3.38;1.50;;;11.30;99.90;;;;;;4972964;28;20024;-86
2022/12/21 14:59:13;;;;;;;3.55;1.90;;;11.50;99.90;;;;;;4954354;28;20034;-86